sensor_id;sensor_type;location;lat;lon;timestamp;pressure;altitude;pressure_sealevel;temperature;humidity
60059;BME280;45932;50.658;3.022;2022-09-28T00:01:51;99505.72;;;13.87;65.42
60059;BME280;45932;50.658;3.022;2022-09-28T00:04:16;99510.94;;;13.88;65.48
60059;BME280;45932;50.658;3.022;2022-09-28T00:06:42;99491.28;;;13.67;64.85
60059;BME280;45932;50.658;3.022;2022-09-28T00:09:08;99574.25;;;14.28;65.72
60059;BME280;45932;50.658;3.022;2022-09-28T00:11:33;99391.22;;;13.17;65.94
60059;BME280;45932;50.658;3.022;2022-09-28T00:14:00;99577.81;;;14.27;65.75
60059;BME280;45932;50.658;3.022;2022-09-28T00:16:33;99568.09;;;14.25;65.96
60059;BME280;45932;50.658;3.022;2022-09-28T00:18:59;99458.94;;;13.56;65.57
60059;BME280;45932;50.658;3.022;2022-09-28T00:21:27;99453.28;;;13.38;65.19
60059;BME280;45932;50.658;3.022;2022-09-28T00:23:55;99486.91;;;13.66;65.85
60059;BME280;45932;50.658;3.022;2022-09-28T00:26:51;99493.88;;;13.69;65.90
60059;BME280;45932;50.658;3.022;2022-09-28T00:29:30;99477.25;;;13.64;65.89
60059;BME280;45932;50.658;3.022;2022-09-28T00:32:04;99470.44;;;13.55;65.61
60059;BME280;45932;50.658;3.022;2022-09-28T00:34:33;99499.44;;;13.61;65.56
60059;BME280;45932;50.658;3.022;2022-09-28T00:37:00;99448.22;;;13.29;65.55
60059;BME280;45932;50.658;3.022;2022-09-28T00:39:26;99578.34;;;14.09;65.57
60059;BME280;45932;50.658;3.022;2022-09-28T00:41:53;99469.91;;;13.43;65.43
60059;BME280;45932;50.658;3.022;2022-09-28T00:47:00;99476.25;;;13.36;65.24
60059;BME280;45932;50.658;3.022;2022-09-28T00:49:32;99499.94;;;13.44;65.35
60059;BME280;45932;50.658;3.022;2022-09-28T00:51:59;99559.81;;;13.80;65.66
60059;BME280;45932;50.658;3.022;2022-09-28T00:54:26;99542.25;;;13.75;65.46
60059;BME280;45932;50.658;3.022;2022-09-28T00:56:51;99542.25;;;13.75;65.28
60059;BME280;45932;50.658;3.022;2022-09-28T00:59:16;99430.97;;;13.16;65.75
60059;BME280;45932;50.658;3.022;2022-09-28T01:01:42;99518.97;;;13.57;65.24
60059;BME280;45932;50.658;3.022;2022-09-28T01:04:08;99528.84;;;13.52;65.33
60059;BME280;45932;50.658;3.022;2022-09-28T01:06:35;99565.00;;;13.83;65.55
60059;BME280;45932;50.658;3.022;2022-09-28T01:09:04;99532.13;;;13.60;65.56
60059;BME280;45932;50.658;3.022;2022-09-28T01:11:32;99554.50;;;13.80;66.04
60059;BME280;45932;50.658;3.022;2022-09-28T01:13:59;99467.97;;;13.19;65.62
60059;BME280;45932;50.658;3.022;2022-09-28T01:16:59;99590.34;;;13.93;65.61
60059;BME280;45932;50.658;3.022;2022-09-28T01:25:47;99582.38;;;13.93;65.94
60059;BME280;45932;50.658;3.022;2022-09-28T01:28:17;99515.91;;;13.41;64.82
60059;BME280;45932;50.658;3.022;2022-09-28T01:30:57;99503.63;;;13.37;65.60
60059;BME280;45932;50.658;3.022;2022-09-28T01:33:32;99586.97;;;13.88;65.62
60059;BME280;45932;50.658;3.022;2022-09-28T01:36:06;99546.53;;;13.51;65.43
60059;BME280;45932;50.658;3.022;2022-09-28T01:38:40;99441.38;;;12.92;65.30
60059;BME280;45932;50.658;3.022;2022-09-28T01:41:08;99509.31;;;13.23;65.37
60059;BME280;45932;50.658;3.022;2022-09-28T01:43:37;99588.97;;;13.80;65.32
60059;BME280;45932;50.658;3.022;2022-09-28T01:46:04;99593.44;;;13.77;65.45
60059;BME280;45932;50.658;3.022;2022-09-28T01:48:36;99544.06;;;13.43;65.52
60059;BME280;45932;50.658;3.022;2022-09-28T01:51:10;99541.34;;;13.47;65.86
60059;BME280;45932;50.658;3.022;2022-09-28T01:53:44;99526.25;;;13.49;65.72
60059;BME280;45932;50.658;3.022;2022-09-28T01:56:24;99577.53;;;13.77;65.50
60059;BME280;45932;50.658;3.022;2022-09-28T01:58:58;99429.78;;;12.96;65.92
60059;BME280;45932;50.658;3.022;2022-09-28T02:01:32;99446.31;;;13.04;65.69
60059;BME280;45932;50.658;3.022;2022-09-28T02:04:12;99529.09;;;13.42;65.85
60059;BME280;45932;50.658;3.022;2022-09-28T02:06:55;99407.13;;;12.86;65.63
60059;BME280;45932;50.658;3.022;2022-09-28T02:09:32;99508.22;;;13.30;65.32
60059;BME280;45932;50.658;3.022;2022-09-28T02:12:04;99488.13;;;13.23;65.57
60059;BME280;45932;50.658;3.022;2022-09-28T02:14:33;99414.34;;;12.80;65.65
60059;BME280;45932;50.658;3.022;2022-09-28T02:17:02;99540.84;;;13.64;65.92
60059;BME280;45932;50.658;3.022;2022-09-28T02:19:29;99396.06;;;12.71;65.58
60059;BME280;45932;50.658;3.022;2022-09-28T02:22:24;99571.56;;;13.71;65.56
60059;BME280;45932;50.658;3.022;2022-09-28T02:25:04;99534.19;;;13.50;65.64
60059;BME280;45932;50.658;3.022;2022-09-28T02:30:02;99504.94;;;13.22;65.21
60059;BME280;45932;50.658;3.022;2022-09-28T02:32:31;99472.97;;;12.98;65.24
60059;BME280;45932;50.658;3.022;2022-09-28T02:34:58;99570.88;;;13.64;65.45
60059;BME280;45932;50.658;3.022;2022-09-28T02:37:25;99461.34;;;13.02;65.50
60059;BME280;45932;50.658;3.022;2022-09-28T02:39:51;99494.69;;;13.09;65.52
60059;BME280;45932;50.658;3.022;2022-09-28T02:42:32;99571.81;;;13.61;65.54
60059;BME280;45932;50.658;3.022;2022-09-28T02:45:43;99528.47;;;13.33;65.55
60059;BME280;45932;50.658;3.022;2022-09-28T02:54:16;99575.44;;;13.59;65.98
60059;BME280;45932;50.658;3.022;2022-09-28T02:59:37;99586.09;;;13.57;65.81
60059;BME280;45932;50.658;3.022;2022-09-28T03:05:21;99455.84;;;12.78;66.02
60059;BME280;45932;50.658;3.022;2022-09-28T03:10:43;99593.09;;;13.58;65.77
60059;BME280;45932;50.658;3.022;2022-09-28T03:13:12;99536.63;;;13.25;66.09
60059;BME280;45932;50.658;3.022;2022-09-28T03:15:42;99457.63;;;12.78;65.72
60059;BME280;45932;50.658;3.022;2022-09-28T03:18:09;99580.78;;;13.57;65.97
60059;BME280;45932;50.658;3.022;2022-09-28T03:20:34;99475.13;;;12.84;65.59
60059;BME280;45932;50.658;3.022;2022-09-28T03:23:00;99484.38;;;13.00;66.17
60059;BME280;45932;50.658;3.022;2022-09-28T03:25:26;99581.66;;;13.58;66.31
60059;BME280;45932;50.658;3.022;2022-09-28T03:27:51;99353.63;;;12.11;65.81
60059;BME280;45932;50.658;3.022;2022-09-28T03:30:17;99436.16;;;12.56;66.23
60059;BME280;45932;50.658;3.022;2022-09-28T03:32:42;99602.84;;;13.58;66.08
60059;BME280;45932;50.658;3.022;2022-09-28T03:35:08;99495.16;;;12.92;66.01
60059;BME280;45932;50.658;3.022;2022-09-28T03:37:35;99484.44;;;12.97;66.10
60059;BME280;45932;50.658;3.022;2022-09-28T03:40:00;99557.56;;;13.34;65.95
60059;BME280;45932;50.658;3.022;2022-09-28T03:42:26;99478.19;;;13.00;66.01
60059;BME280;45932;50.658;3.022;2022-09-28T03:44:51;99503.53;;;13.10;66.56
60059;BME280;45932;50.658;3.022;2022-09-28T03:47:17;99438.38;;;12.73;66.09
60059;BME280;45932;50.658;3.022;2022-09-28T03:49:43;99582.50;;;13.58;66.19
60059;BME280;45932;50.658;3.022;2022-09-28T03:52:10;99557.25;;;13.47;66.46
60059;BME280;45932;50.658;3.022;2022-09-28T03:54:35;99523.44;;;13.23;66.06
60059;BME280;45932;50.658;3.022;2022-09-28T03:57:01;99533.16;;;13.23;66.30
60059;BME280;45932;50.658;3.022;2022-09-28T03:59:26;99414.09;;;12.57;66.51
60059;BME280;45932;50.658;3.022;2022-09-28T04:01:51;99599.34;;;13.56;66.25
60059;BME280;45932;50.658;3.022;2022-09-28T04:04:17;99437.88;;;12.58;66.47
60059;BME280;45932;50.658;3.022;2022-09-28T04:06:43;99512.66;;;12.98;66.64
60059;BME280;45932;50.658;3.022;2022-09-28T04:09:09;99481.38;;;12.81;66.17
60059;BME280;45932;50.658;3.022;2022-09-28T04:11:35;99537.72;;;13.18;66.41
60059;BME280;45932;50.658;3.022;2022-09-28T04:14:00;99478.84;;;12.76;66.03
60059;BME280;45932;50.658;3.022;2022-09-28T04:16:26;99420.91;;;12.34;66.14
60059;BME280;45932;50.658;3.022;2022-09-28T04:18:52;99474.56;;;12.72;66.01
60059;BME280;45932;50.658;3.022;2022-09-28T04:21:18;99496.22;;;12.87;66.41
60059;BME280;45932;50.658;3.022;2022-09-28T04:23:45;99519.69;;;12.99;66.03
60059;BME280;45932;50.658;3.022;2022-09-28T04:26:17;99487.03;;;12.67;66.00
60059;BME280;45932;50.658;3.022;2022-09-28T04:28:44;99381.06;;;12.07;66.01
60059;BME280;45932;50.658;3.022;2022-09-28T04:31:28;99607.66;;;13.43;66.24
60059;BME280;45932;50.658;3.022;2022-09-28T04:33:57;99501.75;;;12.77;66.12
60059;BME280;45932;50.658;3.022;2022-09-28T04:36:23;99490.59;;;12.66;66.39
60059;BME280;45932;50.658;3.022;2022-09-28T04:38:51;99487.03;;;12.67;66.22
60059;BME280;45932;50.658;3.022;2022-09-28T04:41:16;99475.38;;;12.74;66.18
60059;BME280;45932;50.658;3.022;2022-09-28T04:43:42;99572.06;;;13.21;66.16
60059;BME280;45932;50.658;3.022;2022-09-28T04:46:08;99544.47;;;12.96;65.81
60059;BME280;45932;50.658;3.022;2022-09-28T04:48:36;99521.78;;;12.88;66.15
60059;BME280;45932;50.658;3.022;2022-09-28T04:51:01;99542.53;;;13.03;66.35
60059;BME280;45932;50.658;3.022;2022-09-28T04:53:28;99553.03;;;13.06;65.97
60059;BME280;45932;50.658;3.022;2022-09-28T04:55:59;99586.81;;;13.29;65.97
60059;BME280;45932;50.658;3.022;2022-09-28T04:58:26;99496.03;;;12.60;65.67
60059;BME280;45932;50.658;3.022;2022-09-28T05:00:53;99490.78;;;12.58;66.03
60059;BME280;45932;50.658;3.022;2022-09-28T05:03:20;99464.75;;;12.41;66.17
60059;BME280;45932;50.658;3.022;2022-09-28T05:05:46;99545.44;;;12.94;66.00
60059;BME280;45932;50.658;3.022;2022-09-28T05:08:13;99486.16;;;12.67;66.44
60059;BME280;45932;50.658;3.022;2022-09-28T05:10:38;99561.75;;;13.10;66.32
60059;BME280;45932;50.658;3.022;2022-09-28T05:13:09;99484.03;;;12.46;66.16
60059;BME280;45932;50.658;3.022;2022-09-28T05:15:35;99588.25;;;13.08;66.41
60059;BME280;45932;50.658;3.022;2022-09-28T05:18:01;99578.38;;;13.15;66.35
60059;BME280;45932;50.658;3.022;2022-09-28T05:20:27;99555.00;;;12.98;66.19
60059;BME280;45932;50.658;3.022;2022-09-28T05:22:52;99469.88;;;12.49;66.26
60059;BME280;45932;50.658;3.022;2022-09-28T05:25:18;99512.72;;;12.63;65.99
60059;BME280;45932;50.658;3.022;2022-09-28T05:27:43;99574.44;;;12.97;66.03
60059;BME280;45932;50.658;3.022;2022-09-28T05:30:09;99558.50;;;13.00;66.60
60059;BME280;45932;50.658;3.022;2022-09-28T05:32:44;99451.06;;;12.27;66.54
60059;BME280;45932;50.658;3.022;2022-09-28T05:35:10;99547.41;;;12.86;66.41
60059;BME280;45932;50.658;3.022;2022-09-28T05:37:36;99469.50;;;12.28;66.32
60059;BME280;45932;50.658;3.022;2022-09-28T05:40:02;99484.13;;;12.43;66.11
60059;BME280;45932;50.658;3.022;2022-09-28T05:42:29;99605.50;;;13.25;66.64
60059;BME280;45932;50.658;3.022;2022-09-28T05:44:55;99618.63;;;13.28;66.34
60059;BME280;45932;50.658;3.022;2022-09-28T05:47:22;99462.44;;;12.29;66.52
60059;BME280;45932;50.658;3.022;2022-09-28T05:49:48;99514.72;;;12.54;66.24
60059;BME280;45932;50.658;3.022;2022-09-28T05:52:13;99439.22;;;12.07;66.27
60059;BME280;45932;50.658;3.022;2022-09-28T05:54:38;99593.72;;;13.02;66.47
60059;BME280;45932;50.658;3.022;2022-09-28T05:57:04;99487.06;;;12.31;66.27
60059;BME280;45932;50.658;3.022;2022-09-28T05:59:31;99512.16;;;12.51;66.41
60059;BME280;45932;50.658;3.022;2022-09-28T06:01:56;99540.69;;;12.72;66.33
60059;BME280;45932;50.658;3.022;2022-09-28T06:04:21;99476.44;;;12.32;66.57
60059;BME280;45932;50.658;3.022;2022-09-28T06:06:47;99522.72;;;12.51;66.66
60059;BME280;45932;50.658;3.022;2022-09-28T06:09:12;99571.28;;;12.84;66.65
60059;BME280;45932;50.658;3.022;2022-09-28T06:11:37;99553.03;;;12.73;66.90
60059;BME280;45932;50.658;3.022;2022-09-28T06:14:03;99561.91;;;12.71;66.55
60059;BME280;45932;50.658;3.022;2022-09-28T06:16:29;99417.47;;;11.94;66.85
60059;BME280;45932;50.658;3.022;2022-09-28T06:18:55;99472.22;;;12.27;67.27
60059;BME280;45932;50.658;3.022;2022-09-28T06:21:20;99495.69;;;12.39;66.99
60059;BME280;45932;50.658;3.022;2022-09-28T06:23:45;99548.69;;;12.69;67.05
60059;BME280;45932;50.658;3.022;2022-09-28T06:26:11;99595.00;;;12.87;66.84
60059;BME280;45932;50.658;3.022;2022-09-28T06:28:36;99501.84;;;12.40;67.12
60059;BME280;45932;50.658;3.022;2022-09-28T06:31:02;99535.00;;;12.53;66.85
60059;BME280;45932;50.658;3.022;2022-09-28T06:33:27;99582.78;;;12.81;67.04
60059;BME280;45932;50.658;3.022;2022-09-28T06:35:52;99592.41;;;12.86;66.62
60059;BME280;45932;50.658;3.022;2022-09-28T06:38:18;99587.38;;;12.75;67.03
60059;BME280;45932;50.658;3.022;2022-09-28T06:40:43;99647.19;;;13.17;66.54
60059;BME280;45932;50.658;3.022;2022-09-28T06:43:13;99503.94;;;12.27;66.90
60059;BME280;45932;50.658;3.022;2022-09-28T06:45:40;99568.44;;;12.56;66.91
60059;BME280;45932;50.658;3.022;2022-09-28T06:48:06;99423.84;;;11.85;66.97
60059;BME280;45932;50.658;3.022;2022-09-28T06:50:36;99511.94;;;12.24;67.01
60059;BME280;45932;50.658;3.022;2022-09-28T06:53:03;99521.19;;;12.42;67.12
60059;BME280;45932;50.658;3.022;2022-09-28T06:55:30;99543.19;;;12.44;67.33
60059;BME280;45932;50.658;3.022;2022-09-28T06:58:04;99582.28;;;12.67;67.23
60059;BME280;45932;50.658;3.022;2022-09-28T07:00:33;99556.25;;;12.50;67.10
60059;BME280;45932;50.658;3.022;2022-09-28T07:03:01;99502.25;;;12.23;67.43
60059;BME280;45932;50.658;3.022;2022-09-28T07:05:26;99607.50;;;12.82;67.07
60059;BME280;45932;50.658;3.022;2022-09-28T07:07:56;99463.06;;;12.04;67.52
60059;BME280;45932;50.658;3.022;2022-09-28T07:10:23;99438.59;;;11.94;67.50
60059;BME280;45932;50.658;3.022;2022-09-28T07:12:50;99615.09;;;12.94;67.39
60059;BME280;45932;50.658;3.022;2022-09-28T07:15:16;99611.03;;;12.81;67.32
60059;BME280;45932;50.658;3.022;2022-09-28T07:17:41;99576.06;;;12.68;67.45
60059;BME280;45932;50.658;3.022;2022-09-28T07:20:07;99550.03;;;12.51;67.65
60059;BME280;45932;50.658;3.022;2022-09-28T07:22:32;99524.72;;;12.41;67.36
60059;BME280;45932;50.658;3.022;2022-09-28T07:24:58;99634.44;;;12.98;67.04
60059;BME280;45932;50.658;3.022;2022-09-28T07:27:24;99595.31;;;12.75;67.21
60059;BME280;45932;50.658;3.022;2022-09-28T07:29:50;99517.91;;;12.32;67.48
60059;BME280;45932;50.658;3.022;2022-09-28T07:32:18;99695.22;;;13.37;67.37
60059;BME280;45932;50.658;3.022;2022-09-28T07:34:43;99541.28;;;12.49;67.42
60059;BME280;45932;50.658;3.022;2022-09-28T07:37:10;99568.00;;;12.74;67.45
60059;BME280;45932;50.658;3.022;2022-09-28T07:39:37;99688.09;;;13.41;67.69
60059;BME280;45932;50.658;3.022;2022-09-28T07:42:21;99683.63;;;13.43;67.60
60059;BME280;45932;50.658;3.022;2022-09-28T07:44:47;99542.88;;;12.55;67.50
60059;BME280;45932;50.658;3.022;2022-09-28T07:47:12;99706.41;;;13.49;67.53
60059;BME280;45932;50.658;3.022;2022-09-28T07:49:38;99563.00;;;12.62;67.71
60059;BME280;45932;50.658;3.022;2022-09-28T07:52:05;99693.94;;;13.52;67.81
60059;BME280;45932;50.658;3.022;2022-09-28T07:54:30;99446.34;;;12.02;67.81
60059;BME280;45932;50.658;3.022;2022-09-28T07:56:56;99703.56;;;13.56;67.59
60059;BME280;45932;50.658;3.022;2022-09-28T07:59:39;99484.50;;;12.28;67.70
60059;BME280;45932;50.658;3.022;2022-09-28T08:02:05;99560.06;;;12.74;67.92
60059;BME280;45932;50.658;3.022;2022-09-28T08:07:56;99513.84;;;12.53;67.56
60059;BME280;45932;50.658;3.022;2022-09-28T08:10:42;99643.47;;;13.24;67.81
60059;BME280;45932;50.658;3.022;2022-09-28T08:13:08;99549.50;;;12.73;67.90
60059;BME280;45932;50.658;3.022;2022-09-28T08:15:48;99534.56;;;12.70;67.64
60059;BME280;45932;50.658;3.022;2022-09-28T08:18:35;99414.75;;;11.99;67.72
60059;BME280;45932;50.658;3.022;2022-09-28T08:21:23;99518.97;;;12.59;68.03
60059;BME280;45932;50.658;3.022;2022-09-28T08:24:46;99565.38;;;13.07;67.85
60059;BME280;45932;50.658;3.022;2022-09-28T08:27:12;99623.06;;;13.27;67.72
60059;BME280;45932;50.658;3.022;2022-09-28T08:29:38;99681.69;;;13.81;67.96
60059;BME280;45932;50.658;3.022;2022-09-28T08:32:05;99717.50;;;13.96;68.28
60059;BME280;45932;50.658;3.022;2022-09-28T08:34:39;99619.25;;;13.39;68.31
60059;BME280;45932;50.658;3.022;2022-09-28T08:37:31;99647.41;;;13.75;67.91
60059;BME280;45932;50.658;3.022;2022-09-28T08:39:56;99570.94;;;13.29;67.93
60059;BME280;45932;50.658;3.022;2022-09-28T08:42:41;99698.97;;;14.26;68.07
60059;BME280;45932;50.658;3.022;2022-09-28T08:45:25;99597.13;;;13.72;67.96
60059;BME280;45932;50.658;3.022;2022-09-28T08:48:21;99393.38;;;12.74;67.90
60059;BME280;45932;50.658;3.022;2022-09-28T08:51:31;99723.09;;;14.77;67.81
60059;BME280;45932;50.658;3.022;2022-09-28T08:54:12;99705.72;;;14.95;67.69
60059;BME280;45932;50.658;3.022;2022-09-28T08:56:47;99722.94;;;15.10;67.02
60059;BME280;45932;50.658;3.022;2022-09-28T08:59:19;99735.72;;;15.25;66.96
60059;BME280;45932;50.658;3.022;2022-09-28T09:01:51;99473.22;;;13.80;65.72
60059;BME280;45932;50.658;3.022;2022-09-28T09:08:10;99599.16;;;14.79;65.83
60059;BME280;45932;50.658;3.022;2022-09-28T09:10:48;99754.47;;;15.99;65.77
60059;BME280;45932;50.658;3.022;2022-09-28T09:16:30;99754.91;;;16.36;64.91
60059;BME280;45932;50.658;3.022;2022-09-28T09:21:58;99761.22;;;16.79;64.71
60059;BME280;45932;50.658;3.022;2022-09-28T09:24:31;99705.53;;;16.51;64.02
60059;BME280;45932;50.658;3.022;2022-09-28T09:27:13;99781.09;;;17.17;63.49
60059;BME280;45932;50.658;3.022;2022-09-28T09:30:10;99778.56;;;17.36;63.57
60059;BME280;45932;50.658;3.022;2022-09-28T09:32:40;99798.16;;;17.35;62.05
60059;BME280;45932;50.658;3.022;2022-09-28T09:35:25;99672.53;;;16.77;62.77
60059;BME280;45932;50.658;3.022;2022-09-28T09:43:35;99790.19;;;17.55;62.41
60059;BME280;45932;50.658;3.022;2022-09-28T09:46:28;99726.19;;;17.35;62.74
60059;BME280;45932;50.658;3.022;2022-09-28T09:49:07;99790.91;;;18.02;62.41
60059;BME280;45932;50.658;3.022;2022-09-28T09:57:01;99755.75;;;18.32;60.21
60059;BME280;45932;50.658;3.022;2022-09-28T09:59:35;99663.13;;;17.96;58.66
60059;BME280;45932;50.658;3.022;2022-09-28T10:02:21;99576.44;;;17.46;59.67
60059;BME280;45932;50.658;3.022;2022-09-28T10:04:48;99807.03;;;18.78;58.68
60059;BME280;45932;50.658;3.022;2022-09-28T10:07:21;99789.56;;;18.90;58.69
60059;BME280;45932;50.658;3.022;2022-09-28T10:09:50;99605.34;;;17.95;58.08
60059;BME280;45932;50.658;3.022;2022-09-28T10:12:21;99715.56;;;18.73;57.63
60059;BME280;45932;50.658;3.022;2022-09-28T10:14:47;99609.69;;;18.16;55.94
60059;BME280;45932;50.658;3.022;2022-09-28T10:17:16;99779.41;;;19.35;57.06
60059;BME280;45932;50.658;3.022;2022-09-28T10:19:42;99681.16;;;18.84;56.24
60059;BME280;45932;50.658;3.022;2022-09-28T10:22:14;99676.50;;;18.70;55.20
60059;BME280;45932;50.658;3.022;2022-09-28T10:24:44;99727.03;;;18.94;55.76
60059;BME280;45932;50.658;3.022;2022-09-28T10:27:17;99621.91;;;18.01;54.62
60059;BME280;45932;50.658;3.022;2022-09-28T10:29:49;99796.00;;;19.05;56.10
60059;BME280;45932;50.658;3.022;2022-09-28T10:32:19;99821.91;;;19.41;56.56
60059;BME280;45932;50.658;3.022;2022-09-28T10:34:45;99772.22;;;19.18;54.87
60059;BME280;45932;50.658;3.022;2022-09-28T10:37:11;99686.78;;;18.61;53.78
60059;BME280;45932;50.658;3.022;2022-09-28T10:42:26;99583.94;;;17.75;53.84
60059;BME280;45932;50.658;3.022;2022-09-28T10:44:58;99844.50;;;19.16;55.29
60059;BME280;45932;50.658;3.022;2022-09-28T10:47:28;99784.47;;;18.66;55.11
60059;BME280;45932;50.658;3.022;2022-09-28T10:49:55;99703.31;;;17.91;55.36
60059;BME280;45932;50.658;3.022;2022-09-28T10:52:32;99659.66;;;17.52;55.34
60059;BME280;45932;50.658;3.022;2022-09-28T10:54:58;99859.59;;;18.59;55.42
60059;BME280;45932;50.658;3.022;2022-09-28T10:57:35;99787.09;;;18.07;56.22
60059;BME280;45932;50.658;3.022;2022-09-28T11:00:02;99736.78;;;17.57;55.21
60059;BME280;45932;50.658;3.022;2022-09-28T11:02:34;99839.59;;;18.28;56.52
60059;BME280;45932;50.658;3.022;2022-09-28T11:05:02;99828.53;;;18.16;56.63
60059;BME280;45932;50.658;3.022;2022-09-28T11:07:31;99653.75;;;17.03;57.46
60059;BME280;45932;50.658;3.022;2022-09-28T11:09:58;99602.63;;;16.72;56.20
60059;BME280;45932;50.658;3.022;2022-09-28T11:12:27;99782.59;;;17.87;57.68
60059;BME280;45932;50.658;3.022;2022-09-28T11:14:59;99787.88;;;17.89;55.44
60059;BME280;45932;50.658;3.022;2022-09-28T11:17:38;99844.28;;;18.43;56.57
60059;BME280;45932;50.658;3.022;2022-09-28T11:22:54;99672.53;;;17.63;56.72
60059;BME280;45932;50.658;3.022;2022-09-28T11:25:26;99818.38;;;18.64;57.43
60059;BME280;45932;50.658;3.022;2022-09-28T11:30:22;99740.81;;;18.47;55.71
60059;BME280;45932;50.658;3.022;2022-09-28T11:32:49;99689.66;;;18.37;57.00
60059;BME280;45932;50.658;3.022;2022-09-28T11:35:22;99696.91;;;18.35;55.47
60059;BME280;45932;50.658;3.022;2022-09-28T11:45:48;99838.94;;;19.02;52.21
60059;BME280;45932;50.658;3.022;2022-09-28T11:48:22;99777.59;;;18.61;54.80
60059;BME280;45932;50.658;3.022;2022-09-28T11:50:52;99679.41;;;18.08;56.16
60059;BME280;45932;50.658;3.022;2022-09-28T11:56:36;99775.13;;;18.94;57.22
60059;BME280;45932;50.658;3.022;2022-09-28T11:59:23;99631.94;;;18.34;57.08
60059;BME280;45932;50.658;3.022;2022-09-28T12:04:20;99826.19;;;19.63;54.66
60059;BME280;45932;50.658;3.022;2022-09-28T12:07:01;99844.13;;;19.61;53.86
60059;BME280;45932;50.658;3.022;2022-09-28T12:09:38;99584.94;;;18.13;54.63
60059;BME280;45932;50.658;3.022;2022-09-28T12:12:16;99769.16;;;19.26;54.28
60059;BME280;45932;50.658;3.022;2022-09-28T12:14:44;99780.50;;;19.31;54.09
60059;BME280;45932;50.658;3.022;2022-09-28T12:17:22;99768.25;;;19.44;52.92
60059;BME280;45932;50.658;3.022;2022-09-28T12:20:21;99817.81;;;20.06;53.73
60059;BME280;45932;50.658;3.022;2022-09-28T12:23:00;99603.84;;;18.81;53.23
60059;BME280;45932;50.658;3.022;2022-09-28T12:25:32;99681.50;;;19.32;52.19
60059;BME280;45932;50.658;3.022;2022-09-28T12:28:02;99676.91;;;19.34;53.01
60059;BME280;45932;50.658;3.022;2022-09-28T12:30:34;99785.44;;;20.10;53.08
60059;BME280;45932;50.658;3.022;2022-09-28T12:33:10;99591.09;;;19.06;50.78
60059;BME280;45932;50.658;3.022;2022-09-28T12:35:57;99820.94;;;20.47;51.72
60059;BME280;45932;50.658;3.022;2022-09-28T12:55:45;99751.13;;;20.01;48.78
60059;BME280;45932;50.658;3.022;2022-09-28T13:01:17;99820.81;;;20.33;51.23
60059;BME280;45932;50.658;3.022;2022-09-28T13:09:25;99743.16;;;19.47;50.88
60059;BME280;45932;50.658;3.022;2022-09-28T13:15:06;99727.19;;;19.28;49.94
60059;BME280;45932;50.658;3.022;2022-09-28T13:22:58;99675.34;;;18.76;51.69
60059;BME280;45932;50.658;3.022;2022-09-28T13:25:29;99765.56;;;19.27;51.53
60059;BME280;45932;50.658;3.022;2022-09-28T13:28:04;99601.09;;;18.29;49.01
60059;BME280;45932;50.658;3.022;2022-09-28T13:30:32;99719.66;;;18.80;49.89
60059;BME280;45932;50.658;3.022;2022-09-28T13:33:01;99562.91;;;17.88;53.19
60059;BME280;45932;50.658;3.022;2022-09-28T13:35:28;99775.13;;;19.13;52.28
60059;BME280;45932;50.658;3.022;2022-09-28T13:41:14;99666.84;;;18.49;47.45
60059;BME280;45932;50.658;3.022;2022-09-28T13:44:05;99578.84;;;17.90;51.15
60059;BME280;45932;50.658;3.022;2022-09-28T13:49:28;99628.63;;;18.10;51.97
60059;BME280;45932;50.658;3.022;2022-09-28T13:52:05;99591.66;;;17.82;51.68
60059;BME280;45932;50.658;3.022;2022-09-28T14:00:22;99690.97;;;18.47;54.61
60059;BME280;45932;50.658;3.022;2022-09-28T14:10:52;99818.81;;;19.12;52.46
60059;BME280;45932;50.658;3.022;2022-09-28T14:16:26;99817.91;;;19.13;53.88
60059;BME280;45932;50.658;3.022;2022-09-28T14:31:57;99818.69;;;18.96;50.41
60059;BME280;45932;50.658;3.022;2022-09-28T14:34:34;99722.88;;;18.31;51.81
60059;BME280;45932;50.658;3.022;2022-09-28T14:37:03;99779.75;;;18.71;54.63
60059;BME280;45932;50.658;3.022;2022-09-28T14:39:47;99701.94;;;18.22;52.58
60059;BME280;45932;50.658;3.022;2022-09-28T14:42:32;99792.22;;;18.71;53.46
60059;BME280;45932;50.658;3.022;2022-09-28T14:47:42;99808.34;;;18.88;54.91
60059;BME280;45932;50.658;3.022;2022-09-28T14:50:24;99694.94;;;18.19;51.71
60059;BME280;45932;50.658;3.022;2022-09-28T14:52:53;99631.22;;;17.72;53.47
60059;BME280;45932;50.658;3.022;2022-09-28T14:55:27;99730.22;;;18.26;51.25
60059;BME280;45932;50.658;3.022;2022-09-28T14:57:57;99691.81;;;17.89;50.78
60059;BME280;45932;50.658;3.022;2022-09-28T15:00:25;99810.22;;;18.67;52.40
60059;BME280;45932;50.658;3.022;2022-09-28T15:02:58;99691.91;;;17.87;51.65
60059;BME280;45932;50.658;3.022;2022-09-28T15:05:31;99720.31;;;18.09;51.67
60059;BME280;45932;50.658;3.022;2022-09-28T15:08:00;99716.31;;;17.99;51.57
60059;BME280;45932;50.658;3.022;2022-09-28T15:12:57;99725.13;;;18.01;52.17
60059;BME280;45932;50.658;3.022;2022-09-28T15:15:36;99564.13;;;17.02;52.90
60059;BME280;45932;50.658;3.022;2022-09-28T15:20:48;99604.69;;;17.08;50.57
60059;BME280;45932;50.658;3.022;2022-09-28T15:25:54;99673.06;;;17.51;52.63
60059;BME280;45932;50.658;3.022;2022-09-28T15:28:22;99747.13;;;17.85;52.02
60059;BME280;45932;50.658;3.022;2022-09-28T15:30:48;99683.38;;;17.38;52.24
60059;BME280;45932;50.658;3.022;2022-09-28T15:33:29;99623.59;;;17.02;52.08
60059;BME280;45932;50.658;3.022;2022-09-28T15:36:19;99813.94;;;18.04;52.76
60059;BME280;45932;50.658;3.022;2022-09-28T15:39:11;99649.25;;;17.05;53.61
60059;BME280;45932;50.658;3.022;2022-09-28T15:41:38;99759.44;;;17.67;53.03
60059;BME280;45932;50.658;3.022;2022-09-28T15:44:24;99829.88;;;18.06;51.87
60059;BME280;45932;50.658;3.022;2022-09-28T15:47:03;99779.56;;;17.76;53.06
60059;BME280;45932;50.658;3.022;2022-09-28T15:49:43;99687.47;;;17.26;54.57
60059;BME280;45932;50.658;3.022;2022-09-28T15:52:23;99829.88;;;18.06;54.28
60059;BME280;45932;50.658;3.022;2022-09-28T15:54:50;99634.00;;;16.86;53.61